Time;durP1;ratioP1;P1;durP2;ratioP2;P2;SDS_P1;SDS_P2;PMS_P1;PMS_P2;Temp;Humidity;BMP_temperature;BMP_pressure;BME280_temperature;BME280_humidity;BME280_pressure;Samples;Min_cycle;Max_cycle;Signal;HPM_P1;HPM_P2
2022/05/05 00:01:36;;;;;;;9.97;8.97;;;11.90;99.90;;;;;;5073831;28;20332;-58
2022/05/05 00:04:04;;;;;;;9.43;8.53;;;11.80;99.90;;;;;;5074285;28;20205;-58
2022/05/05 00:06:30;;;;;;;9.93;9.03;;;11.90;99.90;;;;;;5073499;28;20216;-57
2022/05/05 00:08:57;;;;;;;11.07;9.47;;;11.90;99.90;;;;;;5074071;28;20201;-57
2022/05/05 00:14:24;;;;;;;10.77;9.73;;;12.00;99.90;;;;;;5073961;28;20254;-57
2022/05/05 00:16:52;;;;;;;13.17;10.50;;;11.90;99.90;;;;;;5074178;28;20213;-58
2022/05/05 00:19:19;;;;;;;12.20;10.70;;;12.00;99.90;;;;;;5073801;28;20232;-58
2022/05/05 00:21:47;;;;;;;12.20;10.93;;;12.00;99.90;;;;;;5073623;28;20225;-58
2022/05/05 00:24:13;;;;;;;12.47;11.33;;;12.10;99.90;;;;;;5073600;28;20215;-57
2022/05/05 00:26:40;;;;;;;12.23;11.00;;;12.20;99.90;;;;;;5073595;28;20244;-58
2022/05/05 00:29:07;;;;;;;12.13;10.80;;;12.30;99.90;;;;;;5073577;28;20208;-57
2022/05/05 00:31:33;;;;;;;13.13;11.10;;;12.40;99.90;;;;;;5073532;28;20235;-57
2022/05/05 00:34:02;;;;;;;12.77;11.50;;;12.50;99.90;;;;;;5073756;28;20242;-58
2022/05/05 00:36:29;;;;;;;11.47;10.37;;;12.50;99.90;;;;;;5073461;28;20208;-58
2022/05/05 00:38:56;;;;;;;10.53;9.53;;;12.50;99.90;;;;;;5073220;28;20583;-58
2022/05/05 00:41:22;;;;;;;10.10;9.00;;;12.50;99.90;;;;;;5073024;28;20233;-58
2022/05/05 00:43:49;;;;;;;10.57;9.33;;;12.40;99.90;;;;;;5073494;28;20262;-58
2022/05/05 00:46:16;;;;;;;9.40;8.60;;;12.30;99.90;;;;;;5073165;28;20213;-57
2022/05/05 00:48:43;;;;;;;11.33;8.20;;;12.30;99.90;;;;;;5073352;28;20201;-57
2022/05/05 00:51:12;;;;;;;9.33;8.43;;;12.20;99.90;;;;;;5072849;28;20650;-57
2022/05/05 00:53:38;;;;;;;9.47;8.57;;;12.20;99.90;;;;;;5072798;28;20209;-58
2022/05/05 00:56:09;;;;;;;9.00;8.10;;;12.20;99.90;;;;;;5073204;28;20734;-58
2022/05/05 00:58:37;;;;;;;10.03;9.13;;;12.20;99.90;;;;;;5073665;28;20649;-57
2022/05/05 01:01:05;;;;;;;10.17;9.17;;;12.20;99.90;;;;;;5073512;28;20385;-58
2022/05/05 01:03:33;;;;;;;10.27;9.10;;;12.10;99.90;;;;;;5072821;28;20251;-58
2022/05/05 01:06:00;;;;;;;10.57;9.57;;;12.10;99.90;;;;;;5072692;28;20212;-58
2022/05/05 01:08:28;;;;;;;11.33;10.23;;;12.10;99.90;;;;;;5072800;28;20219;-58
2022/05/05 01:10:55;;;;;;;11.00;9.30;;;12.20;99.90;;;;;;5072631;28;20209;-58
2022/05/05 01:13:22;;;;;;;10.93;9.83;;;12.20;99.90;;;;;;5072367;28;20607;-58
2022/05/05 01:15:50;;;;;;;11.93;9.50;;;12.20;99.90;;;;;;5072581;28;20574;-58
2022/05/05 01:18:16;;;;;;;11.50;9.97;;;12.20;99.90;;;;;;5072530;28;20239;-58
2022/05/05 01:20:47;;;;;;;11.20;10.10;;;12.10;99.90;;;;;;5072626;28;20221;-58
2022/05/05 01:23:16;;;;;;;11.73;10.00;;;12.20;99.90;;;;;;5072216;28;20228;-58
2022/05/05 01:28:28;;;;;;;11.83;10.63;;;12.30;99.90;;;;;;5072406;28;20200;-58
2022/05/05 01:30:55;;;;;;;14.00;10.93;;;12.40;99.90;;;;;;5072320;28;20208;-58
2022/05/05 01:33:23;;;;;;;13.77;11.83;;;12.40;99.90;;;;;;5072020;28;20215;-58
2022/05/05 01:35:51;;;;;;;11.60;10.40;;;12.30;99.90;;;;;;5071997;28;20208;-58
2022/05/05 01:38:21;;;;;;;10.83;9.83;;;12.20;99.90;;;;;;5072380;28;20209;-58
2022/05/05 01:40:48;;;;;;;12.53;11.23;;;12.20;99.90;;;;;;5072376;28;20606;-58
2022/05/05 01:43:16;;;;;;;11.80;10.60;;;12.20;99.90;;;;;;5071964;28;20209;-58
2022/05/05 01:45:43;;;;;;;11.43;10.37;;;12.20;99.90;;;;;;5072212;28;20246;-58
2022/05/05 01:48:10;;;;;;;11.97;10.77;;;12.20;99.90;;;;;;5072340;28;20201;-57
2022/05/05 01:50:37;;;;;;;11.77;10.67;;;12.20;99.90;;;;;;5072253;28;20201;-57
2022/05/05 01:53:04;;;;;;;11.90;10.70;;;12.10;99.90;;;;;;5072113;28;20312;-57
2022/05/05 01:55:33;;;;;;;11.87;10.77;;;12.00;99.90;;;;;;5071910;28;20691;-57
2022/05/05 01:58:00;;;;;;;11.93;10.47;;;12.00;99.90;;;;;;5072065;28;20673;-57
2022/05/05 02:00:27;;;;;;;12.67;10.70;;;11.90;99.90;;;;;;5072092;28;20224;-57
2022/05/05 02:02:55;;;;;;;11.70;10.50;;;11.90;99.90;;;;;;5104377;22;20232;-60
2022/05/05 02:05:22;;;;;;;11.67;10.47;;;11.90;99.90;;;;;;5080246;28;20288;-60
2022/05/05 02:07:49;;;;;;;11.43;10.37;;;11.90;99.90;;;;;;5071923;28;20220;-60
2022/05/05 02:10:17;;;;;;;11.60;10.40;;;11.80;99.90;;;;;;5071908;28;20667;-60
2022/05/05 02:12:46;;;;;;;10.47;9.47;;;11.70;99.90;;;;;;5071551;28;20597;-60
2022/05/05 02:15:14;;;;;;;10.83;9.73;;;11.60;99.90;;;;;;5071743;28;20209;-60
2022/05/05 02:17:44;;;;;;;11.30;10.20;;;11.60;99.90;;;;;;5071917;28;20213;-60
2022/05/05 02:20:13;;;;;;;10.93;9.97;;;11.50;99.90;;;;;;5071967;28;20225;-61
2022/05/05 02:22:40;;;;;;;11.47;10.27;;;11.50;99.90;;;;;;5071584;28;20224;-61
2022/05/05 02:25:08;;;;;;;11.10;10.00;;;11.40;99.90;;;;;;5071963;28;20213;-60
2022/05/05 02:27:53;;;;;;;10.63;9.63;;;11.30;99.90;;;;;;5071845;28;20258;-61
2022/05/05 02:30:22;;;;;;;11.47;10.27;;;11.20;99.90;;;;;;5073109;28;20204;-59
2022/05/05 02:32:49;;;;;;;11.20;10.20;;;11.20;99.90;;;;;;5075488;28;20633;-59
2022/05/05 02:35:16;;;;;;;13.43;10.30;;;11.20;99.90;;;;;;5075672;28;20205;-59
2022/05/05 02:40:27;;;;;;;11.10;10.07;;;11.20;99.90;;;;;;5075604;28;20243;-59
2022/05/05 02:42:56;;;;;;;11.73;10.53;;;11.10;99.90;;;;;;5075209;28;20716;-59
2022/05/05 02:45:23;;;;;;;13.27;11.50;;;11.10;99.90;;;;;;5075762;28;20231;-59
2022/05/05 02:47:50;;;;;;;12.30;11.10;;;11.00;99.90;;;;;;5075719;28;20266;-60
2022/05/05 02:50:17;;;;;;;12.67;11.37;;;11.00;99.90;;;;;;5075337;28;20201;-60
2022/05/05 02:52:44;;;;;;;14.00;12.67;;;10.90;99.90;;;;;;5075216;28;20225;-60
2022/05/05 02:55:10;;;;;;;13.23;11.93;;;10.80;99.90;;;;;;5075935;28;20258;-60
2022/05/05 02:57:37;;;;;;;12.30;11.00;;;10.80;99.90;;;;;;5075673;28;20212;-59
2022/05/05 03:00:10;;;;;;;14.57;12.13;;;10.70;99.90;;;;;;5075252;28;20229;-59
2022/05/05 03:02:38;;;;;;;14.93;11.83;;;10.60;99.90;;;;;;5074941;28;20275;-60
2022/05/05 03:05:05;;;;;;;13.23;11.97;;;10.50;99.90;;;;;;5075167;28;20205;-59
2022/05/05 03:07:32;;;;;;;13.57;11.67;;;10.40;99.90;;;;;;5075125;28;20300;-59
2022/05/05 03:09:59;;;;;;;13.50;12.20;;;10.40;99.90;;;;;;5075137;28;20204;-59
2022/05/05 03:12:25;;;;;;;13.97;12.23;;;10.50;99.90;;;;;;5074741;28;20251;-59
2022/05/05 03:14:52;;;;;;;14.23;12.73;;;10.60;99.90;;;;;;5074908;28;20315;-60
2022/05/05 03:17:20;;;;;;;17.40;13.10;;;10.50;99.90;;;;;;5074779;28;20231;-60
2022/05/05 03:19:47;;;;;;;13.63;12.27;;;10.50;99.90;;;;;;5074578;28;20229;-59
2022/05/05 03:22:13;;;;;;;13.87;12.47;;;10.50;99.90;;;;;;5074781;28;20224;-59
2022/05/05 03:24:40;;;;;;;14.77;13.17;;;10.50;99.90;;;;;;5074465;28;20665;-59
2022/05/05 03:27:07;;;;;;;13.80;12.27;;;10.40;99.90;;;;;;5074854;28;20215;-59
2022/05/05 03:29:34;;;;;;;15.23;12.80;;;10.30;99.90;;;;;;5074584;28;20208;-60
2022/05/05 03:32:00;;;;;;;13.57;12.27;;;10.20;99.90;;;;;;5074234;28;20221;-60
2022/05/05 03:34:28;;;;;;;13.13;11.83;;;10.20;99.90;;;;;;5074355;28;20590;-60
2022/05/05 03:36:55;;;;;;;14.43;13.03;;;10.20;99.90;;;;;;5074944;28;20266;-59
2022/05/05 03:39:22;;;;;;;13.37;12.07;;;10.20;99.90;;;;;;5074495;28;20266;-60
2022/05/05 03:41:48;;;;;;;13.73;12.33;;;10.10;99.90;;;;;;5073978;28;20225;-59
2022/05/05 03:44:15;;;;;;;13.37;12.03;;;10.00;99.90;;;;;;5074586;28;20213;-59
2022/05/05 03:46:42;;;;;;;14.70;13.20;;;10.00;99.90;;;;;;5074272;28;20243;-59
2022/05/05 03:49:09;;;;;;;14.33;12.93;;;10.10;99.90;;;;;;5074073;28;20209;-60
2022/05/05 03:51:37;;;;;;;15.73;12.90;;;10.20;99.90;;;;;;5074488;28;20229;-60
2022/05/05 03:54:04;;;;;;;13.87;12.47;;;10.30;99.90;;;;;;5074274;28;20205;-60
2022/05/05 03:56:31;;;;;;;13.37;12.00;;;10.30;99.90;;;;;;5074061;28;20212;-60
2022/05/05 03:58:57;;;;;;;13.27;11.97;;;10.30;99.90;;;;;;5074116;28;20220;-59
2022/05/05 04:01:24;;;;;;;13.50;12.10;;;10.20;99.90;;;;;;5073670;28;20229;-59
2022/05/05 04:03:51;;;;;;;13.30;11.90;;;10.20;99.90;;;;;;5073666;28;20213;-59
2022/05/05 04:06:19;;;;;;;13.37;11.97;;;10.30;99.90;;;;;;5074063;28;20255;-59
2022/05/05 04:08:48;;;;;;;13.83;11.83;;;10.40;99.90;;;;;;5074030;28;20260;-60
2022/05/05 04:11:14;;;;;;;13.50;12.10;;;10.40;99.90;;;;;;5073695;28;20658;-60
2022/05/05 04:13:41;;;;;;;14.33;12.93;;;10.50;99.90;;;;;;5073674;28;20204;-60
2022/05/05 04:16:08;;;;;;;15.50;12.20;;;10.60;99.90;;;;;;5073560;28;20205;-59
2022/05/05 04:18:35;;;;;;;13.07;11.70;;;10.60;99.90;;;;;;5073799;28;20213;-59
2022/05/05 04:21:02;;;;;;;12.80;11.50;;;10.70;99.90;;;;;;5073439;28;20319;-59
2022/05/05 04:23:29;;;;;;;13.33;12.03;;;10.80;99.90;;;;;;5073428;28;20748;-59
2022/05/05 04:25:57;;;;;;;12.50;11.30;;;10.90;99.90;;;;;;5073570;28;20315;-59
2022/05/05 04:28:25;;;;;;;12.70;11.50;;;11.10;99.90;;;;;;5073513;28;20208;-60
2022/05/05 04:30:52;;;;;;;12.17;10.93;;;11.20;99.90;;;;;;5073407;28;20201;-60
2022/05/05 04:33:18;;;;;;;12.17;10.97;;;11.40;99.90;;;;;;5072922;28;20613;-59
2022/05/05 04:35:45;;;;;;;11.77;10.67;;;11.50;99.90;;;;;;5073420;28;20250;-60
2022/05/05 04:38:12;;;;;;;11.83;10.37;;;11.70;99.90;;;;;;5073407;28;20296;-59
2022/05/05 04:40:39;;;;;;;11.77;10.67;;;11.90;99.90;;;;;;5073316;28;20248;-60
2022/05/05 04:43:07;;;;;;;11.53;10.40;;;12.10;99.90;;;;;;5072784;28;20256;-59
2022/05/05 04:45:34;;;;;;;11.27;10.07;;;12.30;99.90;;;;;;5073171;28;20212;-59
2022/05/05 04:48:00;;;;;;;13.20;11.37;;;12.30;99.90;;;;;;5072999;28;20345;-59
2022/05/05 04:50:27;;;;;;;11.80;10.70;;;12.40;99.90;;;;;;5073001;28;20274;-59
2022/05/05 04:52:54;;;;;;;12.07;10.47;;;12.40;99.90;;;;;;5072135;28;20224;-60
2022/05/05 04:55:20;;;;;;;11.60;10.40;;;12.60;99.90;;;;;;5072927;28;20205;-59
2022/05/05 04:57:47;;;;;;;10.67;9.70;;;12.80;99.90;;;;;;5072659;28;20205;-61
2022/05/05 05:00:16;;;;;;;11.27;10.10;;;13.00;99.90;;;;;;5073041;28;20225;-60
2022/05/05 05:02:43;;;;;;;10.87;9.77;;;13.30;99.90;;;;;;5072205;28;20265;-60
2022/05/05 05:05:10;;;;;;;9.80;8.90;;;13.40;99.90;;;;;;5072647;28;20216;-61
2022/05/05 05:07:37;;;;;;;10.37;9.33;;;13.50;99.90;;;;;;5072513;28;20269;-60
2022/05/05 05:10:05;;;;;;;10.03;9.10;;;13.50;99.90;;;;;;5073023;28;20200;-60
2022/05/05 05:12:32;;;;;;;9.83;8.80;;;13.70;99.90;;;;;;5072198;28;20282;-61
2022/05/05 05:14:58;;;;;;;9.83;8.83;;;13.70;99.90;;;;;;5072576;28;20303;-60
2022/05/05 05:17:27;;;;;;;9.80;8.90;;;13.70;99.90;;;;;;5072288;28;20205;-60
2022/05/05 05:19:54;;;;;;;10.13;9.23;;;13.70;99.90;;;;;;5071797;28;20588;-61
2022/05/05 05:22:22;;;;;;;9.23;8.33;;;13.80;99.90;;;;;;5071984;28;20229;-61
2022/05/05 05:24:48;;;;;;;12.27;9.20;;;13.90;99.90;;;;;;5072214;28;20764;-59
2022/05/05 05:27:15;;;;;;;10.20;7.87;;;13.90;99.90;;;;;;5072450;28;20534;-59
2022/05/05 05:29:42;;;;;;;9.30;8.40;;;14.00;99.90;;;;;;5072360;28;20205;-59
2022/05/05 05:32:09;;;;;;;9.77;8.47;;;13.90;99.90;;;;;;5072108;28;20248;-58
2022/05/05 05:34:37;;;;;;;8.53;7.73;;;13.90;99.90;;;;;;5072316;28;20201;-59
2022/05/05 05:37:04;;;;;;;8.60;7.73;;;13.80;99.90;;;;;;5071984;28;20254;-59
2022/05/05 05:39:31;;;;;;;10.43;8.33;;;13.80;99.90;;;;;;5071866;28;20209;-60
2022/05/05 05:41:58;;;;;;;8.67;7.77;;;13.70;99.90;;;;;;5071843;28;20228;-59
2022/05/05 05:44:24;;;;;;;9.37;8.40;;;13.70;99.90;;;;;;5072230;28;20221;-60
2022/05/05 05:46:51;;;;;;;8.70;7.90;;;13.60;99.90;;;;;;5072252;28;20205;-60
2022/05/05 05:49:18;;;;;;;8.80;8.00;;;13.60;99.90;;;;;;5071897;28;20668;-59
2022/05/05 05:51:46;;;;;;;8.63;7.83;;;13.60;99.90;;;;;;5071715;28;20641;-60
2022/05/05 05:54:12;;;;;;;10.70;9.70;;;13.70;99.90;;;;;;5071756;28;20262;-60
2022/05/05 05:56:40;;;;;;;9.57;8.57;;;13.80;99.90;;;;;;5071921;28;20213;-60
2022/05/05 05:59:07;;;;;;;8.50;7.70;;;13.90;99.90;;;;;;5071795;28;20637;-60
2022/05/05 06:04:18;;;;;;;9.03;8.13;;;14.20;99.90;;;;;;5071641;28;20199;-59
2022/05/05 06:06:47;;;;;;;8.23;7.43;;;14.40;99.90;;;;;;5071689;28;20258;-59
2022/05/05 06:09:15;;;;;;;9.10;7.90;;;14.50;99.90;;;;;;5071791;28;20284;-60
2022/05/05 06:11:42;;;;;;;8.87;8.07;;;14.60;99.90;;;;;;5071669;28;20252;-59
2022/05/05 06:14:09;;;;;;;9.07;8.27;;;14.70;99.90;;;;;;5071607;28;20220;-60
2022/05/05 06:16:36;;;;;;;9.17;8.27;;;14.80;99.90;;;;;;5071657;28;20205;-59
2022/05/05 06:19:02;;;;;;;8.63;7.90;;;15.00;99.90;;;;;;5071511;28;20270;-59
2022/05/05 06:21:29;;;;;;;9.53;8.63;;;15.10;99.90;;;;;;5071724;28;20229;-60
2022/05/05 06:23:57;;;;;;;10.40;9.30;;;15.20;99.90;;;;;;5071481;28;20213;-60
2022/05/05 06:26:24;;;;;;;10.63;9.47;;;15.30;99.90;;;;;;5071772;28;20255;-60
2022/05/05 06:28:50;;;;;;;9.37;8.50;;;15.40;99.90;;;;;;5071828;28;20283;-59
2022/05/05 06:31:17;;;;;;;12.40;8.73;;;15.50;99.90;;;;;;5071660;28;20229;-59
2022/05/05 06:33:44;;;;;;;10.50;8.90;;;15.60;99.90;;;;;;5071156;28;20672;-60
2022/05/05 06:36:11;;;;;;;10.77;9.23;;;15.50;99.90;;;;;;5071722;28;20236;-59
2022/05/05 06:38:38;;;;;;;13.23;11.57;;;15.50;99.90;;;;;;5071705;28;20201;-60
2022/05/05 06:41:08;;;;;;;12.27;8.13;;;15.60;99.90;;;;;;5071373;28;20430;-60
2022/05/05 06:43:34;;;;;;;9.00;8.07;;;15.90;99.90;;;;;;5071032;28;20212;-60
2022/05/05 06:46:01;;;;;;;10.23;8.73;;;16.10;99.90;;;;;;5071362;28;20212;-60
2022/05/05 06:48:28;;;;;;;9.80;8.80;;;16.30;99.90;;;;;;5071316;28;20209;-60
2022/05/05 06:50:55;;;;;;;11.93;9.13;;;16.50;99.90;;;;;;5071571;28;20227;-60
2022/05/05 06:53:21;;;;;;;9.73;8.80;;;16.70;99.90;;;;;;5071196;28;20231;-60
2022/05/05 06:55:49;;;;;;;10.20;9.20;;;16.90;99.90;;;;;;5071293;28;20254;-64
2022/05/05 06:58:17;;;;;;;9.67;8.77;;;17.10;99.90;;;;;;5068730;28;20244;-63
2022/05/05 07:03:28;;;;;;;9.73;8.83;;;16.70;99.90;;;;;;5071120;28;20262;-61
2022/05/05 07:05:54;;;;;;;10.37;9.37;;;15.80;99.90;;;;;;5071130;28;20209;-58
2022/05/05 07:08:21;;;;;;;10.93;9.20;;;15.90;99.90;;;;;;5071375;28;20216;-58
2022/05/05 07:10:53;;;;;;;9.53;8.53;;;16.30;99.90;;;;;;5071177;28;20691;-57
2022/05/05 07:13:21;;;;;;;9.93;9.02;;;16.70;99.90;;;;;;5070683;28;20248;-58
2022/05/05 07:15:48;;;;;;;9.50;8.60;;;16.80;99.90;;;;;;5071315;28;20668;-59
2022/05/05 07:18:14;;;;;;;10.97;9.67;;;17.00;99.90;;;;;;5074951;28;20665;-59
2022/05/05 07:20:41;;;;;;;10.25;8.93;;;17.30;99.90;;;;;;5074792;28;20217;-58
2022/05/05 07:23:12;;;;;;;9.63;8.73;;;17.40;99.90;;;;;;5074341;28;20225;-59
2022/05/05 07:25:39;;;;;;;9.50;8.55;;;17.50;99.90;;;;;;5074489;28;20232;-59
2022/05/05 07:28:06;;;;;;;9.07;8.27;;;17.80;99.90;;;;;;5074683;28;20270;-59
2022/05/05 07:30:35;;;;;;;9.70;8.80;;;18.00;99.90;;;;;;5074664;28;20620;-59
2022/05/05 07:33:02;;;;;;;10.55;9.32;;;18.30;99.90;;;;;;5074295;28;20373;-59
2022/05/05 07:35:29;;;;;;;9.38;8.00;;;18.60;99.90;;;;;;5074612;28;20256;-59
2022/05/05 07:37:55;;;;;;;9.13;8.23;;;18.90;99.90;;;;;;5074359;28;20209;-59
2022/05/05 07:40:22;;;;;;;10.07;8.25;;;19.00;99.90;;;;;;5074218;28;20204;-59
2022/05/05 07:42:49;;;;;;;10.13;9.10;;;18.80;99.90;;;;;;5074207;28;20281;-57
2022/05/05 07:45:16;;;;;;;7.72;7.03;;;19.00;99.90;;;;;;5074336;28;20220;-57
2022/05/05 07:47:44;;;;;;;7.80;7.00;;;19.40;99.90;;;;;;5074057;28;20262;-57
2022/05/05 07:50:11;;;;;;;8.00;7.20;;;19.80;99.90;;;;;;5074032;28;20590;-60
2022/05/05 07:52:38;;;;;;;8.43;7.40;;;20.10;99.90;;;;;;5070688;28;20236;-57
2022/05/05 07:55:06;;;;;;;8.48;7.55;;;20.60;99.90;;;;;;5073812;28;20266;-55
2022/05/05 07:57:33;;;;;;;8.93;8.02;;;20.90;99.90;;;;;;5074055;28;20262;-56
2022/05/05 07:59:59;;;;;;;8.38;7.57;;;20.70;99.90;;;;;;5073954;28;20270;-54
2022/05/05 08:02:26;;;;;;;8.98;7.65;;;20.20;99.90;;;;;;5073508;28;20229;-55
2022/05/05 08:04:54;;;;;;;8.68;7.80;;;20.00;99.90;;;;;;5073312;28;20594;-55
2022/05/05 08:07:21;;;;;;;9.70;8.02;;;20.20;99.90;;;;;;5073302;28;20215;-60
2022/05/05 08:09:48;;;;;;;8.55;7.70;;;20.60;99.90;;;;;;5073770;28;20262;-58
2022/05/05 08:12:16;;;;;;;8.60;7.80;;;21.10;99.90;;;;;;5072946;28;20220;-57
2022/05/05 08:14:43;;;;;;;8.80;7.68;;;21.40;99.90;;;;;;5073436;28;20254;-58
2022/05/05 08:17:10;;;;;;;9.30;8.40;;;21.60;99.90;;;;;;5073189;28;20213;-58
2022/05/05 08:19:37;;;;;;;9.15;8.35;;;21.60;99.90;;;;;;5073399;28;20250;-59
2022/05/05 08:22:05;;;;;;;12.18;11.02;;;21.50;99.90;;;;;;5073250;28;20242;-58
2022/05/05 08:30:04;;;;;;;10.95;9.95;;;20.50;99.90;;;;;;5072744;28;20673;-60
2022/05/05 08:32:30;;;;;;;10.07;9.18;;;20.30;99.90;;;;;;5072602;28;20228;-58
2022/05/05 08:34:57;;;;;;;14.13;12.13;;;20.10;99.90;;;;;;5073314;28;20263;-60
2022/05/05 08:37:25;;;;;;;9.73;8.63;;;20.00;99.90;;;;;;5073226;28;20205;-60
2022/05/05 08:39:52;;;;;;;11.10;10.00;;;19.90;99.90;;;;;;5073196;28;20209;-60
2022/05/05 08:42:18;;;;;;;12.48;11.18;;;20.00;99.90;;;;;;5072518;28;20296;-62
2022/05/05 08:44:45;;;;;;;15.02;13.52;;;19.90;99.90;;;;;;5073066;28;20266;-62
2022/05/05 08:47:17;;;;;;;11.95;10.70;;;19.60;99.90;;;;;;5073397;28;20643;-63
2022/05/05 08:49:44;;;;;;;10.80;9.75;;;19.60;99.90;;;;;;5072566;28;20213;-63
2022/05/05 08:52:12;;;;;;;10.50;9.40;;;19.80;99.90;;;;;;5064326;28;20222;-61
2022/05/05 08:54:42;;;;;;;10.80;9.80;;;19.80;99.90;;;;;;5070041;28;20374;-58
2022/05/05 08:57:08;;;;;;;11.10;10.10;;;19.80;99.90;;;;;;5070365;28;20201;-56
2022/05/05 08:59:35;;;;;;;10.95;9.85;;;19.90;99.90;;;;;;5072117;28;20278;-56
2022/05/05 09:02:02;;;;;;;11.55;10.05;;;19.90;99.90;;;;;;5072674;28;20233;-60
2022/05/05 09:04:28;;;;;;;11.55;10.45;;;20.30;99.90;;;;;;5072832;28;20753;-59
2022/05/05 09:06:55;;;;;;;12.32;11.13;;;20.70;99.90;;;;;;5065221;28;20657;-57
2022/05/05 09:09:27;;;;;;;11.73;10.52;;;20.80;99.90;;;;;;5073268;28;20239;-57
2022/05/05 09:12:12;;;;;;;11.80;10.82;;;20.80;99.90;;;;;;5072429;28;20229;-61
2022/05/05 09:14:41;;;;;;;15.07;12.40;;;20.80;99.90;;;;;;5073594;28;20258;-59
2022/05/05 09:17:10;;;;;;;11.90;10.70;;;20.80;99.90;;;;;;5073285;28;20201;-56
2022/05/05 09:19:38;;;;;;;12.70;11.40;;;20.70;99.90;;;;;;5073274;28;20205;-56
2022/05/05 09:22:05;;;;;;;11.55;10.45;;;20.60;99.90;;;;;;5072817;28;20232;-56
2022/05/05 09:24:43;;;;;;;12.45;11.15;;;20.70;99.90;;;;;;5072874;28;20216;-57
2022/05/05 09:27:19;;;;;;;12.32;11.18;;;20.70;99.90;;;;;;5073074;28;20607;-56
2022/05/05 09:30:01;;;;;;;12.75;11.50;;;20.70;99.90;;;;;;5072844;28;20667;-57
2022/05/05 09:32:29;;;;;;;12.45;11.25;;;20.70;99.90;;;;;;5072801;28;20939;-56
2022/05/05 09:34:57;;;;;;;13.63;12.32;;;20.50;99.90;;;;;;5073288;28;20272;-58
2022/05/05 09:37:24;;;;;;;15.10;13.27;;;20.50;99.90;;;;;;5072560;28;20236;-58
2022/05/05 09:39:55;;;;;;;15.43;12.20;;;20.50;99.90;;;;;;5079621;28;20204;-61
2022/05/05 09:42:36;;;;;;;13.38;12.18;;;20.60;99.90;;;;;;5071796;28;20279;-57
2022/05/05 09:45:21;;;;;;;13.30;12.10;;;20.60;99.90;;;;;;5072458;28;20209;-61
2022/05/05 09:47:50;;;;;;;13.82;12.52;;;20.60;99.90;;;;;;5072241;28;20503;-61
2022/05/05 09:50:19;;;;;;;13.52;12.23;;;20.70;99.90;;;;;;5071862;28;20707;-64
2022/05/05 09:58:21;;;;;;;14.93;11.38;;;20.90;99.90;;;;;;5071929;28;20246;-56
2022/05/05 10:00:55;;;;;;;16.20;13.73;;;21.00;99.90;;;;;;5071957;28;20262;-56
2022/05/05 10:06:16;;;;;;;13.20;11.93;;;21.50;99.90;;;;;;5071650;28;20250;-56
2022/05/05 10:08:46;;;;;;;15.52;13.02;;;21.70;99.90;;;;;;5071790;28;20320;-57
2022/05/05 10:11:14;;;;;;;14.50;13.15;;;22.00;99.90;;;;;;5071987;28;20776;-56
2022/05/05 10:13:42;;;;;;;14.23;12.73;;;22.40;99.90;;;;;;5071474;28;20216;-56
2022/05/05 10:16:09;;;;;;;14.05;11.43;;;22.80;99.90;;;;;;5071874;28;20235;-57
2022/05/05 10:18:38;;;;;;;16.63;13.98;;;23.10;99.90;;;;;;5071787;28;20258;-57
2022/05/05 10:21:07;;;;;;;13.30;12.00;;;23.50;99.90;;;;;;5071772;28;20205;-57
2022/05/05 10:23:46;;;;;;;13.60;12.15;;;23.90;99.90;;;;;;5071517;28;20312;-56
2022/05/05 10:26:13;;;;;;;12.63;11.43;;;24.20;99.90;;;;;;5071641;28;20204;-57
2022/05/05 10:28:44;;;;;;;13.20;11.90;;;24.50;99.90;;;;;;5071433;28;20212;-57
2022/05/05 10:31:12;;;;;;;13.38;12.02;;;24.80;99.90;;;;;;5071508;28;20223;-57
2022/05/05 10:34:00;;;;;;;15.68;11.88;;;24.90;99.00;;;;;;5071660;28;20205;-56
2022/05/05 10:36:28;;;;;;;12.30;11.05;;;24.60;98.30;;;;;;5071829;28;20244;-56
2022/05/05 10:38:55;;;;;;;13.30;11.93;;;24.70;98.60;;;;;;5071683;28;20254;-57
2022/05/05 10:41:41;;;;;;;13.63;11.43;;;24.80;98.70;;;;;;5071354;28;20781;-56
2022/05/05 10:44:22;;;;;;;13.70;12.32;;;24.80;98.00;;;;;;5071508;28;20209;-59
2022/05/05 10:47:01;;;;;;;13.45;12.15;;;24.80;97.90;;;;;;5071524;28;20240;-57
2022/05/05 10:49:50;;;;;;;14.13;12.35;;;24.20;98.60;;;;;;5072013;28;20661;-57
2022/05/05 10:52:32;;;;;;;13.48;12.18;;;23.90;99.30;;;;;;5074656;28;20224;-57
2022/05/05 10:55:23;;;;;;;13.98;12.63;;;23.60;99.40;;;;;;5075594;28;20274;-57
2022/05/05 10:57:50;;;;;;;14.68;13.20;;;23.40;99.70;;;;;;5075162;28;20209;-57
2022/05/05 11:00:19;;;;;;;14.50;12.88;;;23.50;99.40;;;;;;5074559;28;20205;-57
2022/05/05 11:03:14;;;;;;;14.77;13.13;;;23.50;99.40;;;;;;5074810;28;20290;-57
2022/05/05 11:05:41;;;;;;;15.52;13.07;;;23.40;99.90;;;;;;5075204;28;20287;-57
2022/05/05 11:08:33;;;;;;;15.90;12.90;;;23.30;99.90;;;;;;5075356;28;20201;-57
2022/05/05 11:13:45;;;;;;;15.88;14.38;;;23.00;99.80;;;;;;5075189;28;20203;-61
2022/05/05 11:22:09;;;;;;;17.35;15.25;;;22.40;99.90;;;;;;5075027;28;20593;-56
2022/05/05 11:24:36;;;;;;;15.73;13.40;;;22.30;99.90;;;;;;5074452;28;20232;-57
2022/05/05 11:27:04;;;;;;;14.40;12.95;;;22.40;99.90;;;;;;5074661;28;20204;-57
2022/05/05 11:29:31;;;;;;;16.63;14.02;;;22.40;99.90;;;;;;5074882;28;20263;-57
2022/05/05 11:32:00;;;;;;;17.70;15.82;;;22.50;99.90;;;;;;5075124;28;20225;-58
2022/05/05 11:34:34;;;;;;;16.48;13.35;;;22.60;99.90;;;;;;5074562;28;20204;-58
2022/05/05 11:37:02;;;;;;;16.00;13.43;;;22.50;99.90;;;;;;5075196;28;20200;-61
2022/05/05 11:39:29;;;;;;;15.55;13.85;;;22.50;99.90;;;;;;5075167;28;20209;-60
2022/05/05 11:42:00;;;;;;;15.80;13.93;;;22.50;99.90;;;;;;5074418;28;20315;-60
2022/05/05 11:44:28;;;;;;;16.55;14.85;;;22.40;99.90;;;;;;5074534;28;20629;-59
2022/05/05 11:46:57;;;;;;;15.98;13.90;;;22.30;99.90;;;;;;5074678;28;20215;-59
2022/05/05 11:49:32;;;;;;;17.02;13.88;;;22.10;99.90;;;;;;5074918;28;20258;-60
2022/05/05 11:51:59;;;;;;;17.15;15.43;;;22.10;99.90;;;;;;5074628;28;20319;-60
2022/05/05 11:54:28;;;;;;;17.77;14.70;;;22.10;99.90;;;;;;5074242;28;20201;-60
2022/05/05 11:56:55;;;;;;;16.30;14.60;;;22.10;99.90;;;;;;5074568;28;20205;-62
2022/05/05 12:02:10;;;;;;;15.45;13.85;;;21.60;99.90;;;;;;5073737;28;20286;-62
2022/05/05 12:04:41;;;;;;;17.27;15.27;;;21.30;99.90;;;;;;5073822;28;20681;-64
2022/05/05 12:07:09;;;;;;;16.45;14.95;;;21.00;99.90;;;;;;5074024;28;20628;-67
2022/05/05 12:09:37;;;;;;;19.15;17.02;;;21.00;99.90;;;;;;5073880;28;20236;-61
2022/05/05 12:12:13;;;;;;;18.80;16.95;;;20.90;99.90;;;;;;5073917;28;20311;-60
2022/05/05 12:14:44;;;;;;;22.05;19.58;;;20.90;99.90;;;;;;5073524;28;20629;-60
2022/05/05 12:17:18;;;;;;;21.10;18.92;;;20.90;99.90;;;;;;5074011;28;20590;-59
2022/05/05 12:19:48;;;;;;;20.02;18.00;;;21.00;99.90;;;;;;5073950;28;20209;-61
2022/05/05 12:22:15;;;;;;;24.73;18.35;;;21.20;99.90;;;;;;5073447;28;20681;-60
2022/05/05 12:24:46;;;;;;;25.15;18.38;;;21.20;99.90;;;;;;5073791;28;20307;-63
2022/05/05 12:27:13;;;;;;;21.50;19.38;;;20.80;99.90;;;;;;5073456;28;20659;-60
2022/05/05 12:29:41;;;;;;;20.45;18.23;;;20.70;99.90;;;;;;5073533;28;20680;-62
2022/05/05 12:32:13;;;;;;;20.45;17.73;;;20.80;99.90;;;;;;5073432;28;20221;-60
2022/05/05 12:34:40;;;;;;;20.67;18.50;;;21.10;99.90;;;;;;5073273;28;20564;-63
2022/05/05 12:37:15;;;;;;;21.50;17.90;;;21.30;99.90;;;;;;5073075;28;20209;-61
2022/05/05 12:39:57;;;;;;;19.15;17.25;;;21.60;99.90;;;;;;5073305;28;20291;-62
2022/05/05 12:42:25;;;;;;;19.38;17.42;;;22.00;99.90;;;;;;5072935;28;20237;-62
2022/05/05 12:44:52;;;;;;;19.85;17.88;;;22.30;99.90;;;;;;5073239;28;20212;-60
2022/05/05 12:47:26;;;;;;;19.83;17.88;;;22.40;99.90;;;;;;5073362;28;20287;-60
2022/05/05 12:49:53;;;;;;;20.90;18.80;;;22.50;99.90;;;;;;5073318;28;20219;-61
2022/05/05 13:00:50;;;;;;;22.73;20.33;;;22.80;99.90;;;;;;5073343;28;20208;-61
2022/05/05 13:03:21;;;;;;;20.13;18.17;;;22.70;99.90;;;;;;5072576;28;20286;-62
2022/05/05 13:05:48;;;;;;;22.27;19.48;;;22.60;99.90;;;;;;5073234;28;20649;-61
2022/05/05 13:08:16;;;;;;;21.85;19.75;;;22.90;99.90;;;;;;5073165;28;20299;-62
2022/05/05 13:10:43;;;;;;;21.60;19.25;;;23.10;99.90;;;;;;5073205;28;20211;-62
2022/05/05 13:13:09;;;;;;;21.67;19.23;;;23.20;99.90;;;;;;5072414;28;20235;-61
2022/05/05 13:15:36;;;;;;;22.52;20.23;;;23.10;99.90;;;;;;5072085;28;20299;-62
2022/05/05 13:18:04;;;;;;;22.95;20.23;;;22.80;99.90;;;;;;5072835;28;20243;-62
2022/05/05 13:20:30;;;;;;;22.30;18.92;;;22.20;99.90;;;;;;5072766;28;20212;-61
2022/05/05 13:22:57;;;;;;;27.13;23.45;;;22.00;99.90;;;;;;5072080;28;20591;-62
2022/05/05 13:25:26;;;;;;;23.15;20.75;;;22.00;99.90;;;;;;5072501;28;20204;-61
2022/05/05 13:27:53;;;;;;;21.92;19.73;;;22.10;99.90;;;;;;5072392;28;20636;-61